Tiempo atmosférico en la estación meteorológica de Bailo, Huesca (722 m.)



Fecha
DESCASC
Temp. máxima en grados centígrados (hora)
DESCASC
Temp. mínima en grados centígrados (hora)
DESCASC
Temp. media en grados centígrados
DESCASC
Racha de viento máxima en m/sg (hora)
DESCASC
Velocidad máxima media en intervalos de 10 minutos(hora)
DESCASC
Precipitaciones diarias en mm
DESCASC
Precipitaciones de 00:00 a 06:00 en mm
DESCASC
Precipitaciones de 06:00 a 12:00 en mm
DESCASC
Precipitaciones de 12:00 a 18:00 en mm
DESCASC
Precipitaciones de 18:00 a 24:00 en mm
DESCASC
22-04-2019 16.4 (18:20) 5.7 (07:50) 11 5.83 (16:00) 3.06 (20:50) 2.8 0 0 0 2.8
21-04-2019 12.4 (18:10) 6.7 (06:50) 9.5 6.94 (05:30) 4.72 (05:30) 1.8 1.6 0.2 0 0
20-04-2019 20.5 (15:40) 8.2 (06:30) 14.3 9.72 (18:50) 6.67 (18:50) 2.6 0 0 0 2.6
19-04-2019 19.4 (17:00) 11.1 (09:50) 15.3 12.5 (01:40) 8.33 (01:40) 0 0 0 0 0
18-04-2019 17.2 (15:20) 9.1 (00:00) 13.2 15.83 (00:50) 10.28 (00:50) 1.2 0 1 0.2 0
17-04-2019 19.2 (17:40) 8.9 (00:00) 14.1 13.33 (22:20) 9.44 (22:20) 0 0 0 0 0
16-04-2019 19 (16:30) 6.7 (00:00) 12.8 10.83 (00:40) 6.94 (00:40) 2.6 2.6 0 0 0
15-04-2019 19.4 (16:20) 8.5 (00:00) 13.9 18.61 (20:00) 11.11 (20:00) 12 0 0 0 12
14-04-2019 19.9 (17:00) 6.1 (00:00) 13 12.78 (17:10) 9.44 (17:10) 0 0 0 0 0
13-04-2019 20.4 (16:40) -0.1 (00:00) 10.1 10 (18:30) 7.5 (18:20) 0 0 0 0 0
12-04-2019 15.9 (15:40) 4.8 (00:00) 10.3 13.61 (16:00) 9.72 (16:20) 0 0 0 0 0
11-04-2019 12.2 (15:10) 5.6 (00:00) 8.9 15.56 (15:30) 10.56 (15:40) 0 0 0 0 0
10-04-2019 15.2 (16:10) 2.9 (00:00) 9 15.28 (17:50) 10.83 (17:50) 0 0 0 0 0
09-04-2019 14.1 (16:30) 2.6 (00:00) 8.4 9.17 (12:20) 6.39 (18:30) 0 0 0 0 0
08-04-2019 13.7 (18:20) 4.7 (00:00) 9.2 6.67 (16:50) 4.72 (19:10) 1.4 0.2 1 0.2 0
07-04-2019 11.5 (17:10) 3.4 (00:00) 7.5 10.56 (13:50) 7.5 (12:40) 0.2 0.2 0 0 0
06-04-2019 9.1 (17:40) 0.6 (00:00) 4.9 11.67 (15:00) 6.94 (15:00) 12.6 10.6 0.8 1.2 0
05-04-2019 7.9 (16:30) 3.7 (00:00) 5.8 10.83 (15:40) 7.5 (12:30) 6.6 0 1.2 1.2 4.2
04-04-2019 10.3 (18:50) 0.1 (00:00) 5.2 10.83 (02:00) 7.5 (02:00) 0 0 0 0 0
03-04-2019 9.7 (17:10) 1.7 (00:00) 5.7 15.83 (17:30) 10 (17:30) 1.2 0.8 0 0.4 0
02-04-2019 16.8 (17:40) 5.5 (00:00) 11.1 8.61 (14:10) 6.11 (15:50) 0.2 0.2 0 0 0
01-04-2019 13.6 (15:00) 5.9 (00:00) 9.8 6.11 (17:50) 4.72 (17:40) 3.2 0 3 0.2 0
31-03-2019 15.1 (13:40) 2.6 (00:00) 8.9 7.5 (18:20) 5 (04:40) 0 0 0 0 0
30-03-2019 16.5 (14:40) 5.1 (00:00) 10.8 8.06 (18:40) 5.56 (20:00) 0 0 0 0 0
29-03-2019 16.1 (16:00) 5.2 (00:00) 10.7 11.11 (12:40) 7.22 (12:30) 0 0 0 0 0
28-03-2019 18.6 (15:40) 0.3 (00:00) 9.5 6.11 (17:20) 4.44 (17:50) 0 0 0 0 0
27-03-2019 19.3 (15:10) -0.1 (00:00) 9.6 9.72 (17:00) 6.67 (17:00) 0 0 0 0 0
26-03-2019 18.3 (14:40) 1.1 (00:00) 9.7 11.39 (17:20) 8.33 (17:20) 0 0 0 0 0
25-03-2019 16.7 (15:50) 4.1 (00:00) 10.4 12.78 (17:00) 10 (17:00) 0 0 0 0 0

Gráficas

Temp. máximas Temp. mínimas Temp. medias Precipitaciones Rachas de viento máximas Velocidades máximas media en intervalos de 10 minutos

Datos horarios

Fecha y hora oficial Temperatura (ºC) Velocidad del viento (km/h) Dirección del viento Racha (km/h) Dirección de racha Precipitación (mm) Presión (hPa) Tendencia (hPa) Humedad (%)
2019-04-23 23:00:00 7.5 19 Sur 27 Sur 0.2 -- -- 87
2019-04-23 22:00:00 7.5 0 Calma 42 Oeste 2.8 -- -- 87
2019-04-23 21:00:00 8.9 17 Sudoeste 45 Oeste 0.2 -- -- 84
2019-04-23 20:00:00 9.8 4 Oeste 24 Sudeste 0.4 -- -- 86
2019-04-23 19:00:00 9.6 19 Sudeste 35 Sudeste 1 -- -- 89
2019-04-23 18:00:00 10.2 3 Este 18 Sur 0.4 -- -- 89
2019-04-23 17:00:00 9.8 11 Sur 25 Sudoeste 0.8 -- -- 89
2019-04-23 16:00:00 9.3 28 Sudoeste 57 Sudoeste 3.6 -- -- 88
2019-04-23 15:00:00 14.3 11 Sur 30 Sudeste 0 -- -- 62
2019-04-23 14:00:00 14.8 18 Sur 32 Sur 0 -- -- 61
2019-04-23 13:00:00 15.3 21 Sur 36 Sur 0 -- -- 66
2019-04-23 12:00:00 13.7 24 Sur 40 Sur 0 -- -- 72
2019-04-23 11:00:00 12.1 24 Sur 35 Sur 0 -- -- 75
2019-04-23 10:00:00 11.5 18 Sur 33 Sur 0.2 -- -- 79
2019-04-23 09:00:00 10.6 14 Sur 24 Sur 0 -- -- 80
2019-04-23 08:00:00 9.9 19 Sur 28 Sur 0 -- -- 86
2019-04-23 07:00:00 9.8 21 Sur 27 Sur 0 -- -- 86
2019-04-23 06:00:00 9.6 13 Sur 23 Sur 0 -- -- 88
2019-04-23 05:00:00 9.7 8 Sudeste 20 Sur 0 -- -- 86
2019-04-23 04:00:00 9.4 12 Sur 24 Sur 0 -- -- 87
2019-04-23 03:00:00 9.6 16 Sur 22 Sur 0 -- -- 87
2019-04-23 02:00:00 10 15 Sur 21 Sur 0 -- -- 85
2019-04-23 01:00:00 10.1 15 Sur 20 Sur 0 -- -- 85
2019-04-23 00:00:00 9.9 5 Sudeste 9 Sudeste 0 -- -- 91
2019-04-22 23:00:00 10 3 Sudeste 6 Sudeste 0 -- -- 92
2019-04-22 22:00:00 10.2 3 Sudeste 14 Sudoeste 2.2 -- -- 90
2019-04-22 21:00:00 11.3 10 Sudoeste 15 Sudoeste 0.6 -- -- 82
2019-04-22 20:00:00 14.1 3 Oeste 15 Oeste 0 -- -- 62
2019-04-22 19:00:00 15.5 5 Noroeste 9 Norte 0 -- -- 57
2019-04-22 18:00:00 16.1 3 Oeste 8 Sudoeste 0 -- -- 53
2019-04-22 17:00:00 16.1 4 Nordeste 19 Noroeste 0 -- -- 53
2019-04-22 16:00:00 16.1 7 Norte 21 Noroeste 0 -- -- 57
2019-04-22 15:00:00 15.1 5 Noroeste 15 Noroeste 0 -- -- 62
2019-04-22 14:00:00 15.2 6 Norte 10 Norte 0 -- -- 60
2019-04-22 13:00:00 14.1 4 Norte 11 Sudeste 0 -- -- 62
2019-04-22 12:00:00 11.7 10 Sudeste 18 Sudeste 0 -- -- 75
2019-04-22 11:00:00 9.5 4 Sudoeste 9 Sudeste 0 -- -- 90
2019-04-22 10:00:00 8 4 Noroeste 6 Noroeste 0 -- -- 93
2019-04-22 09:00:00 6.8 3 Noroeste 8 Noroeste 0 -- -- 94
2019-04-22 08:00:00 5.8 4 Noroeste 6 Noroeste 0 -- -- 94
2019-04-22 07:00:00 5.9 3 Sudeste 5 Este 0 -- -- 92
2019-04-22 06:00:00 6 4 Oeste 5 Oeste 0 -- -- 92
2019-04-22 05:00:00 7 0 Calma 5 Sudoeste 0 -- -- 89
2019-04-22 04:00:00 7.7 0 Calma 5 Sudeste 0 -- -- 86
2019-04-22 03:00:00 8.4 2 Sudeste 5 Noroeste 0 -- -- 88
2019-04-22 02:00:00 8.9 3 Oeste 5 Oeste 0 -- -- 84
2019-04-22 01:00:00 9.1 0 Calma 6 Noroeste 0 -- -- 83
2019-04-22 00:00:00 9.8 4 Sur 7 Sudoeste 0 -- -- 77
2019-04-21 23:00:00 10 4 Sudoeste 6 Sudoeste 0 -- -- 78
2019-04-21 22:00:00 10.6 0 Calma 4 Sur 0 -- -- 75
2019-04-21 21:00:00 11.1 3 Noroeste 5 Oeste 0 -- -- 74
2019-04-21 20:00:00 11.4 4 Oeste 14 Noroeste 0 -- -- 74
2019-04-21 19:00:00 12 9 Noroeste 15 Noroeste 0 -- -- 68
2019-04-21 18:00:00 12.1 9 Noroeste 14 Noroeste 0 -- -- 71
2019-04-21 17:00:00 11.7 5 Noroeste 9 Oeste 0 -- -- 72
2019-04-21 16:00:00 10.8 4 Noroeste 10 Oeste 0 -- -- 79
2019-04-21 15:00:00 10.2 3 Norte 10 Norte 0 -- -- 82
2019-04-21 14:00:00 9.9 3 Noroeste 8 Noroeste 0 -- -- 79
2019-04-21 13:00:00 9.8 2 Norte 7 Oeste 0 -- -- 81
2019-04-21 12:00:00 9.1 3 Oeste 9 Noroeste 0 -- -- 85
2019-04-21 11:00:00 8.3 3 Noroeste 9 Noroeste 0 -- -- 88
2019-04-21 10:00:00 7.9 3 Sudeste 6 Este 0 -- -- 93
2019-04-21 09:00:00 7.1 2 Oeste 8 Oeste 0 -- -- 96
2019-04-21 08:00:00 6.9 5 Noroeste 6 Noroeste 0 -- -- 95
2019-04-21 07:00:00 6.8 3 Oeste 12 Noroeste 0.2 -- -- 95
2019-04-21 06:00:00 6.9 5 Oeste 25 Sur 1.6 -- -- 92
2019-04-21 05:00:00 7.4 13 Sur 19 Sur 0 -- -- 89
2019-04-21 04:00:00 8.1 6 Sur 13 Sudoeste 0 -- -- 86
2019-04-21 03:00:00 8.6 5 Sudoeste 20 Sudoeste 0 -- -- 82
2019-04-21 02:00:00 8.7 12 Sudoeste 24 Sudoeste 0 -- -- 82
2019-04-21 01:00:00 9.2 6 Sudoeste 17 Sudeste 0 -- -- 83
2019-04-21 00:00:00 9.4 11 Sudeste 22 Sudeste 0 -- -- 84
2019-04-20 23:00:00 10.3 6 Sudoeste 27 Sudoeste 0 -- -- 76
2019-04-20 22:00:00 10.5 19 Sur 30 Sur 0.2 -- -- 76
2019-04-20 21:00:00 11 9 Sur 22 Este 2.2 -- -- 81
2019-04-20 20:00:00 14.1 15 Sudeste 34 Sur 0.2 -- -- 61
2019-04-20 19:00:00 16 22 Sur 35 Sur 0 -- -- 44
2019-04-20 18:00:00 17.2 22 Sur 33 Sur 0 -- -- 39
2019-04-20 17:00:00 18.1 21 Sur 32 Sur 0 -- -- 35
2019-04-20 16:00:00 19.9 13 Sur 22 Sur 0 -- -- 35
2019-04-20 15:00:00 19.3 9 Noroeste 18 Sudoeste 0 -- -- 42
2019-04-20 14:00:00 18.9 7 Norte 17 Este 0 -- -- 47
2019-04-20 13:00:00 16.9 4 Oeste 22 Noroeste 0 -- -- 52
2019-04-20 12:00:00 15.8 10 Noroeste 15 Noroeste 0 -- -- 48
2019-04-20 11:00:00 14.3 4 Norte 9 Sur 0 -- -- 54
2019-04-20 10:00:00 11.2 3 Este 8 Este 0 -- -- 69
2019-04-20 09:00:00 10 0 Calma 5 Sudoeste 0 -- -- 72
2019-04-20 08:00:00 8.9 0 Calma 4 Sudeste 0 -- -- 72
2019-04-20 07:00:00 8.7 3 Noroeste 6 Sudeste 0 -- -- 68
2019-04-20 06:00:00 8.5 2 Sur 6 Sudeste 0 -- -- 70
2019-04-20 05:00:00 8.5 0 Calma 4 Oeste 0 -- -- 65
2019-04-20 04:00:00 9.3 3 Este 5 Norte 0 -- -- 64
2019-04-20 03:00:00 9.2 3 Noroeste 9 Noroeste 0 -- -- 65
2019-04-20 02:00:00 10.7 4 Sudoeste 8 Oeste 0 -- -- 53
2019-04-20 01:00:00 11.2 3 Norte 9 Este 0 -- -- 53
2019-04-20 00:00:00 11.3 6 Este 12 Sudeste 0 -- -- 52
2019-04-19 23:00:00 12.6 8 Sudeste 22 Sudoeste 0 -- -- 51
2019-04-19 22:00:00 14.7 14 Sur 35 Sudoeste 0 -- -- 43
2019-04-19 21:00:00 15.2 24 Sudoeste 41 Sur 0 -- -- 44
2019-04-19 20:00:00 15.6 18 Sudoeste 32 Sur 0 -- -- 45
2019-04-19 19:00:00 17.2 17 Sur 25 Sur 0 -- -- 42
2019-04-19 18:00:00 17.5 19 Sur 31 Sur 0 -- -- 45
2019-04-19 17:00:00 19.4 14 Sudoeste 27 Sudoeste 0 -- -- 46
2019-04-19 16:00:00 18.2 9 Sudoeste 20 Sudoeste 0 -- -- 44
2019-04-19 15:00:00 17.6 15 Sur 24 Sur 0 -- -- 42
2019-04-19 14:00:00 16.9 5 Nordeste 14 Norte 0 -- -- 48
2019-04-19 13:00:00 16.1 5 Norte 12 Norte 0 -- -- 51
2019-04-19 12:00:00 14.4 6 Norte 10 Noroeste 0 -- -- 58
2019-04-19 11:00:00 12.4 4 Noroeste 8 Norte 0 -- -- 61
2019-04-19 10:00:00 11.4 5 Nordeste 11 Sur 0 -- -- 65
2019-04-19 09:00:00 11.8 6 Sudeste 11 Sudeste 0 -- -- 53
2019-04-19 08:00:00 11.4 9 Este 17 Este 0 -- -- 50
2019-04-19 07:00:00 11.9 8 Sur 21 Sudeste 0 -- -- 44
2019-04-19 06:00:00 12.5 9 Sudeste 29 Sudeste 0 -- -- 43
2019-04-19 05:00:00 13.2 16 Sudeste 29 Sudeste 0 -- -- 40
2019-04-19 04:00:00 12.6 14 Sudeste 33 Sudeste 0 -- -- 43
2019-04-19 03:00:00 12.5 13 Sur 36 Sur 0 -- -- 44
2019-04-19 02:00:00 12.2 22 Sudeste 45 Sur 0 -- -- 46
2019-04-19 01:00:00 12.4 20 Sur 32 Sur 0 -- -- 49
2019-04-19 00:00:00 12.9 18 Sur 35 Sur 0 -- -- 51
2019-04-18 23:00:00 12.2 6 Este 23 Sur 0 -- -- 64
2019-04-18 22:00:00 13.5 14 Sur 33 Sudoeste 0 -- -- 57
2019-04-18 21:00:00 14 21 Sudoeste 29 Sudoeste 0 -- -- 53
2019-04-18 20:00:00 14 18 Sudoeste 32 Sudoeste 0 -- -- 55
2019-04-18 19:00:00 14.4 17 Sur 32 Sur 0 -- -- 55
2019-04-18 18:00:00 14.8 15 Sur 29 Sur 0 -- -- 57
2019-04-18 17:00:00 15.6 15 Sur 30 Sur 0 -- -- 54
2019-04-18 16:00:00 16 20 Sur 38 Sur 0 -- -- 55
2019-04-18 15:00:00 16.5 18 Sudoeste 40 Sur 0 -- -- 58
2019-04-18 14:00:00 16 21 Sur 45 Sudeste 0 -- -- 56
2019-04-18 13:00:00 14.6 17 Sur 25 Sudoeste 0.2 -- -- 63
2019-04-18 12:00:00 11.6 14 Sudeste 21 Sur 1 -- -- 78
2019-04-18 11:00:00 12 11 Este 27 Sur 0 -- -- 69
2019-04-18 10:00:00 12.1 15 Sur 27 Sur 0 -- -- 65
2019-04-18 09:00:00 10.9 13 Sudeste 23 Sur 0 -- -- 71
2019-04-18 08:00:00 9.6 4 Sudeste 17 Sudeste 0 -- -- 73
2019-04-18 07:00:00 9.1 10 Sudeste 20 Este 0 -- -- 76
2019-04-18 06:00:00 9.6 10 Sudeste 31 Sudeste 0 -- -- 77
2019-04-18 05:00:00 10.3 5 Este 19 Sur 0 -- -- 74
2019-04-18 04:00:00 10.9 17 Sur 48 Sur 0 -- -- 71
2019-04-18 03:00:00 11.7 23 Sur 45 Sur 0 -- -- 63
2019-04-18 02:00:00 11.7 13 Sur 44 Sur 0 -- -- 64
2019-04-18 01:00:00 12.4 35 Sur 57 Sur 0 -- -- 61
2019-04-18 00:00:00 13 30 Sur 45 Sur 0 -- -- 63
2019-04-17 23:00:00 13.5 31 Sur 48 Sur 0 -- -- 65
2019-04-17 22:00:00 14.4 28 Sur 40 Sur 0 -- -- 64
2019-04-17 21:00:00 15.2 26 Sur 38 Sur 0 -- -- 63
2019-04-17 20:00:00 16.1 25 Sur 39 Sudoeste 0 -- -- 58
2019-04-17 19:00:00 17.8 22 Sur 32 Sur 0 -- -- 54
2019-04-17 18:00:00 18.9 22 Sudoeste 37 Sur 0 -- -- 51
2019-04-17 17:00:00 19.1 24 Sudoeste 39 Sur 0 -- -- 49
2019-04-17 16:00:00 18.8 26 Sudoeste 40 Sudoeste 0 -- -- 49
2019-04-17 15:00:00 18.3 23 Sur 35 Sur 0 -- -- 51
2019-04-17 14:00:00 16.6 24 Sur 36 Sur 0 -- -- 54
2019-04-17 13:00:00 15.7 25 Sur 41 Sur 0 -- -- 54
2019-04-17 12:00:00 14.9 24 Sur 40 Sur 0 -- -- 56
2019-04-17 11:00:00 12.9 17 Sur 31 Sur 0 -- -- 63
2019-04-17 10:00:00 11.7 24 Sur 36 Sudoeste 0 -- -- 64
2019-04-17 09:00:00 11.2 17 Sudeste 30 Sudeste 0 -- -- 63
2019-04-17 08:00:00 9 16 Sur 36 Sudeste 0 -- -- 72
2019-04-17 07:00:00 9.3 21 Sudeste 40 Sudeste 0 -- -- 71
2019-04-17 06:00:00 9.4 21 Sudeste 34 Sudeste 0 -- -- 73
2019-04-17 05:00:00 9.2 22 Sudeste 38 Sudeste 0 -- -- 71
2019-04-17 04:00:00 9.3 14 Sudeste 39 Sudeste 0 -- -- 72
2019-04-17 03:00:00 9.5 24 Sur 32 Sur 0 -- -- 70
2019-04-17 02:00:00 9.4 13 Sudeste 27 Sur 0 -- -- 70
2019-04-17 01:00:00 9.9 10 Sudeste 33 Sur 0 -- -- 70
2019-04-17 00:00:00 10.8 12 Sudeste 24 Sur 0 -- -- 73
2019-04-16 23:00:00 11.8 17 Sur 24 Sur 0 -- -- 66
2019-04-16 22:00:00 13.2 16 Sur 26 Sur 0 -- -- 61
2019-04-16 21:00:00 13.9 15 Sur 22 Sur 0 -- -- 58
2019-04-16 20:00:00 15.8 16 Sur 24 Sur 0 -- -- 51
2019-04-16 19:00:00 17 12 Sudoeste 20 Sur 0 -- -- 46
2019-04-16 18:00:00 17 10 Sur 30 Sudoeste 0 -- -- 51
2019-04-16 17:00:00 16.7 18 Sudoeste 33 Sur 0 -- -- 52
2019-04-16 16:00:00 17.7 9 Sudeste 23 Sudeste 0 -- -- 53
2019-04-16 15:00:00 17.5 6 Noroeste 15 Norte 0 -- -- 48
2019-04-16 14:00:00 16.3 5 Nordeste 18 Noroeste 0 -- -- 50
2019-04-16 13:00:00 16 9 Nordeste 18 Noroeste 0 -- -- 47
2019-04-16 12:00:00 13.7 6 Noroeste 17 Norte 0 -- -- 59
2019-04-16 11:00:00 12.3 6 Norte 15 Nordeste 0 -- -- 71
2019-04-16 10:00:00 11.3 5 Nordeste 12 Este 0 -- -- 80
2019-04-16 09:00:00 9.1 4 Nordeste 8 Nordeste 0 -- -- 83
2019-04-16 08:00:00 7 3 Sur 6 Noroeste 0 -- -- 89
2019-04-16 07:00:00 7.4 3 Noroeste 6 Noroeste 0 -- -- 88
2019-04-16 06:00:00 7.3 2 Noroeste 8 Oeste 0 -- -- 89
2019-04-16 05:00:00 7.1 4 Noroeste 8 Sudeste 0 -- -- 88
2019-04-16 04:00:00 7.1 3 Sur 8 Noroeste 0 -- -- 89
2019-04-16 03:00:00 7.7 4 Nordeste 18 Noroeste 0.2 -- -- 90
2019-04-16 02:00:00 8 18 Noroeste 28 Noroeste 0.8 -- -- 89
2019-04-16 01:00:00 8.5 17 Noroeste 39 Oeste 1.6 -- -- 90
2019-04-16 00:00:00 10.8 8 Norte 30 Norte 3.8 -- -- 94
2019-04-15 23:00:00 11.1 3 Sur 30 Noroeste 3.4 -- -- 93
2019-04-15 22:00:00 11.7 23 Oeste 40 Noroeste 4.6 -- -- 87
2019-04-15 21:00:00 12.2 31 Sudoeste 53 Sur 0.2 -- -- 79
2019-04-15 20:00:00 14.9 40 Sudoeste 67 Sudoeste 0 -- -- 66
2019-04-15 19:00:00 16.5 32 Sur 46 Sur 0 -- -- 58
2019-04-15 18:00:00 17.9 30 Sur 47 Sudoeste 0 -- -- 52
2019-04-15 17:00:00 18.3 27 Sur 39 Sur 0 -- -- 50
2019-04-15 16:00:00 18.9 21 Sur 33 Sur 0 -- -- 50
2019-04-15 15:00:00 17.8 21 Sur 36 Sur 0 -- -- 53
2019-04-15 14:00:00 17.4 23 Sur 37 Sur 0 -- -- 56
2019-04-15 13:00:00 16.8 26 Sur 38 Sur 0 -- -- 61
2019-04-15 12:00:00 16.1 23 Sur 39 Sur 0 -- -- 63
2019-04-15 11:00:00 13.6 29 Sur 42 Sur 0 -- -- 70
2019-04-15 10:00:00 12.1 23 Sur 35 Sur 0 -- -- 75
2019-04-15 09:00:00 12.1 19 Sur 35 Sur 0 -- -- 74
2019-04-15 08:00:00 10.7 20 Sur 30 Sur 0 -- -- 80
2019-04-15 07:00:00 10.3 17 Sudeste 30 Este 0 -- -- 82
2019-04-15 06:00:00 10.2 8 Sur 15 Sudeste 0 -- -- 83
2019-04-15 05:00:00 8.8 4 Este 14 Sudeste 0 -- -- 85
2019-04-15 04:00:00 9 3 Sudoeste 10 Sudeste 0 -- -- 88
2019-04-15 03:00:00 10 4 Sudoeste 9 Sur 0 -- -- 85
2019-04-15 02:00:00 10.6 4 Noroeste 9 Noroeste 0 -- -- 83
2019-04-15 01:00:00 11.8 2 Sudeste 6 Sur 0 -- -- 76
2019-04-15 00:00:00 11.7 6 Sur 10 Sudeste 0 -- -- 78
2019-04-14 23:00:00 12.2 4 Sudeste 9 Noroeste 0 -- -- 75
2019-04-14 22:00:00 13.2 6 Norte 24 Oeste 0 -- -- 72
2019-04-14 21:00:00 14 19 Oeste 34 Norte 0 -- -- 69
2019-04-14 20:00:00 15.5 20 Norte 38 Noroeste 0 -- -- 64
2019-04-14 19:00:00 16.9 27 Noroeste 40 Noroeste 0 -- -- 59
2019-04-14 18:00:00 18.2 26 Noroeste 46 Noroeste 0 -- -- 55
2019-04-14 17:00:00 19.9 28 Noroeste 40 Norte 0 -- -- 49
2019-04-14 16:00:00 19.1 21 Norte 38 Norte 0 -- -- 52
2019-04-14 15:00:00 18.8 25 Norte 44 Noroeste 0 -- -- 51
2019-04-14 14:00:00 18.1 29 Noroeste 40 Norte 0 -- -- 52
2019-04-14 13:00:00 16.7 21 Norte 32 Noroeste 0 -- -- 51
2019-04-14 12:00:00 14.9 19 Norte 36 Noroeste 0 -- -- 55
2019-04-14 11:00:00 13.8 19 Noroeste 33 Noroeste 0 -- -- 51
2019-04-14 10:00:00 13.3 22 Norte 33 Noroeste 0 -- -- 49
2019-04-14 09:00:00 9.4 4 Nordeste 8 Nordeste 0 -- -- 54
2019-04-14 08:00:00 6.9 0 Calma 6 Sur 0 -- -- 61
2019-04-14 07:00:00 6.3 4 Sudoeste 9 Noroeste 0 -- -- 52
2019-04-14 06:00:00 7.1 3 Sudoeste 5 Oeste 0 -- -- 44
2019-04-14 05:00:00 7 0 Calma 4 Norte 0 -- -- 45
2019-04-14 04:00:00 7.5 0 Calma 4 Oeste 0 -- -- 42
2019-04-14 03:00:00 8.3 3 Nordeste 4 Este 0 -- -- 39
2019-04-14 02:00:00 8.4 0 Calma 5 Noroeste 0 -- -- 39
2019-04-14 01:00:00 9.8 3 Oeste 10 Noroeste 0 -- -- 35
2019-04-14 00:00:00 11.4 6 Noroeste 13 Noroeste 0 -- -- 30
2019-04-13 23:00:00 11.6 5 Oeste 18 Oeste 0 -- -- 27
2019-04-13 22:00:00 11.7 8 Oeste 14 Noroeste 0 -- -- 27
2019-04-13 21:00:00 12.4 9 Noroeste 20 Norte 0 -- -- 29
2019-04-13 20:00:00 17.4 12 Norte 30 Noroeste 0 -- -- 20
2019-04-13 19:00:00 18.7 26 Noroeste 36 Oeste 0 -- -- 16
2019-04-13 18:00:00 19.9 24 Noroeste 36 Oeste 0 -- -- 17
2019-04-13 17:00:00 20.2 21 Noroeste 36 Oeste 0 -- -- 18
2019-04-13 16:00:00 20.3 20 Oeste 32 Noroeste 0 -- -- 17
2019-04-13 15:00:00 19.3 5 Oeste 17 Nordeste 0 -- -- 15
2019-04-13 14:00:00 18 6 Norte 14 Norte 0 -- -- 19
2019-04-13 13:00:00 15.3 3 Noroeste 10 Noroeste 0 -- -- 23
2019-04-13 12:00:00 13.2 3 Sudeste 12 Este 0 -- -- 24
2019-04-13 11:00:00 9.7 5 Sudeste 9 Sudeste 0 -- -- 51
2019-04-13 10:00:00 5.6 2 Oeste 8 Nordeste 0 -- -- 60
2019-04-13 09:00:00 1.9 3 Oeste 9 Norte 0 -- -- 74
2019-04-13 08:00:00 0.5 2 Sudeste 8 Sudeste 0 -- -- 74
2019-04-13 07:00:00 0.4 0 Calma 8 Noroeste 0 -- -- 75
2019-04-13 06:00:00 0.7 5 Noroeste 7 Noroeste 0 -- -- 74
2019-04-13 05:00:00 1.6 0 Calma 6 Noroeste 0 -- -- 69
2019-04-13 04:00:00 2.8 2 Oeste 6 Oeste 0 -- -- 64
2019-04-13 03:00:00 3.1 2 Norte 7 Oeste 0 -- -- 65
2019-04-13 02:00:00 3.7 3 Sudoeste 9 Sudoeste 0 -- -- 65
2019-04-13 01:00:00 5.6 3 Sudoeste 9 Noroeste 0 -- -- 58
2019-04-13 00:00:00 5.6 5 Oeste 9 Noroeste 0 -- -- 61
2019-04-12 23:00:00 7.3 2 Oeste 6 Norte 0 -- -- 54
2019-04-12 22:00:00 8.3 3 Noroeste 19 Oeste 0 -- -- 52
2019-04-12 21:00:00 8.8 15 Noroeste 34 Noroeste 0 -- -- 53
2019-04-12 20:00:00 12.1 24 Noroeste 37 Noroeste 0 -- -- 44
2019-04-12 19:00:00 14 25 Noroeste 40 Noroeste 0 -- -- 41
2019-04-12 18:00:00 15.1 29 Noroeste 41 Noroeste 0 -- -- 37
2019-04-12 17:00:00 15.2 29 Noroeste 46 Noroeste 0 -- -- 39
2019-04-12 16:00:00 15.4 33 Noroeste 49 Noroeste 0 -- -- 36
2019-04-12 15:00:00 15.1 27 Noroeste 40 Noroeste 0 -- -- 38
2019-04-12 14:00:00 14.6 23 Noroeste 39 Noroeste 0 -- -- 40
2019-04-12 13:00:00 13.7 21 Noroeste 39 Noroeste 0 -- -- 40
2019-04-12 12:00:00 12.2 22 Noroeste 38 Noroeste 0 -- -- 43
2019-04-12 11:00:00 10.3 24 Noroeste 35 Noroeste 0 -- -- 52
2019-04-12 10:00:00 8.9 19 Noroeste 29 Noroeste 0 -- -- 57
2019-04-12 09:00:00 7.1 19 Noroeste 28 Noroeste 0 -- -- 65
2019-04-12 08:00:00 4.8 13 Noroeste 28 Noroeste 0 -- -- 75
2019-04-12 07:00:00 5.6 21 Noroeste 33 Noroeste 0 -- -- 74
2019-04-12 06:00:00 5.6 19 Noroeste 33 Noroeste 0 -- -- 77
2019-04-12 05:00:00 6.2 27 Noroeste 38 Noroeste 0 -- -- 78
2019-04-12 04:00:00 6.2 22 Noroeste 33 Noroeste 0 -- -- 75
2019-04-12 03:00:00 5.9 19 Noroeste 36 Noroeste 0 -- -- 78
2019-04-12 02:00:00 6.1 21 Noroeste 36 Noroeste 0 -- -- 78
2019-04-12 01:00:00 6.2 23 Noroeste 36 Noroeste 0 -- -- 76
2019-04-12 00:00:00 6.2 21 Noroeste 41 Noroeste 0 -- -- 77
2019-04-11 23:00:00 6.6 24 Noroeste 37 Noroeste 0 -- -- 71
2019-04-11 22:00:00 7 25 Noroeste 41 Noroeste 0 -- -- 71
2019-04-11 21:00:00 7.8 25 Noroeste 49 Norte 0 -- -- 67
2019-04-11 20:00:00 8.5 32 Noroeste 54 Norte 0 -- -- 63
2019-04-11 19:00:00 9.4 32 Noroeste 48 Noroeste 0 -- -- 61
2019-04-11 18:00:00 10.8 33 Norte 54 Noroeste 0 -- -- 56
2019-04-11 17:00:00 10.7 28 Noroeste 53 Noroeste 0 -- -- 60
2019-04-11 16:00:00 10.2 35 Norte 56 Noroeste 0 -- -- 62
2019-04-11 15:00:00 11.9 36 Norte 48 Norte 0 -- -- 54
2019-04-11 14:00:00 10.5 32 Noroeste 53 Noroeste 0 -- -- 56
2019-04-11 13:00:00 11 34 Noroeste 52 Norte 0 -- -- 56
2019-04-11 12:00:00 10.5 35 Norte 50 Noroeste 0 -- -- 57
2019-04-11 11:00:00 9.7 29 Noroeste 49 Noroeste 0 -- -- 60
2019-04-11 10:00:00 8.5 31 Noroeste 46 Noroeste 0 -- -- 55
2019-04-11 09:00:00 7 21 Noroeste 37 Noroeste 0 -- -- 61
2019-04-11 08:00:00 5.7 26 Noroeste 44 Noroeste 0 -- -- 65
2019-04-11 07:00:00 5.6 20 Noroeste 32 Noroeste 0 -- -- 68
2019-04-11 06:00:00 5.9 26 Noroeste 37 Norte 0 -- -- 65
2019-04-11 05:00:00 5.8 21 Noroeste 37 Noroeste 0 -- -- 69
2019-04-11 04:00:00 6 23 Noroeste 36 Norte 0 -- -- 67
2019-04-11 03:00:00 6.4 23 Noroeste 36 Noroeste 0 -- -- 65
2019-04-11 02:00:00 6.5 19 Noroeste 35 Noroeste 0 -- -- 67
2019-04-11 01:00:00 6.6 18 Noroeste 31 Noroeste 0 -- -- 67
2019-04-11 00:00:00 6.9 21 Noroeste 35 Noroeste 0 -- -- 68
2019-04-10 23:00:00 7.1 22 Noroeste 40 Noroeste 0 -- -- 69
2019-04-10 22:00:00 7.1 27 Noroeste 49 Noroeste 0 -- -- 70
2019-04-10 21:00:00 7.6 30 Noroeste 46 Noroeste 0 -- -- 67
2019-04-10 20:00:00 8.5 32 Noroeste 46 Noroeste 0 -- -- 66
2019-04-10 19:00:00 10.5 33 Noroeste 53 Noroeste 0 -- -- 57
2019-04-10 18:00:00 12.5 37 Noroeste 55 Noroeste 0 -- -- 51
2019-04-10 17:00:00 14.4 32 Noroeste 45 Noroeste 0 -- -- 45
2019-04-10 16:00:00 15 26 Noroeste 37 Noroeste 0 -- -- 41
2019-04-10 15:00:00 14.9 21 Noroeste 44 Noroeste 0 -- -- 40
2019-04-10 14:00:00 14.4 18 Noroeste 37 Oeste 0 -- -- 42
2019-04-10 13:00:00 13.2 22 Noroeste 34 Oeste 0 -- -- 52
2019-04-10 12:00:00 11.7 14 Noroeste 27 Noroeste 0 -- -- 57
2019-04-10 11:00:00 10.3 14 Norte 23 Norte 0 -- -- 66
2019-04-10 10:00:00 7.9 3 Norte 8 Nordeste 0 -- -- 73
2019-04-10 09:00:00 6.5 4 Sudeste 8 Sudeste 0 -- -- 81
2019-04-10 08:00:00 3.4 0 Calma 6 Oeste 0 -- -- 89
2019-04-10 07:00:00 3.1 3 Oeste 6 Sudoeste 0 -- -- 91
2019-04-10 06:00:00 3.6 0 Calma 5 Sudeste 0 -- -- 89
2019-04-10 05:00:00 4.3 0 Calma 5 Noroeste 0 -- -- 88
2019-04-10 04:00:00 4.8 0 Calma 5 Sudeste 0 -- -- 86
2019-04-10 03:00:00 5.1 2 Sudeste 3 Sur 0 -- -- 87
2019-04-10 02:00:00 5.3 0 Calma 6 Sudeste 0 -- -- 87
2019-04-10 01:00:00 5.8 2 Norte 9 Noroeste 0 -- -- 85
2019-04-10 00:00:00 6.2 8 Noroeste 14 Oeste 0 -- -- 83
2019-04-09 23:00:00 6.6 10 Norte 24 Noroeste 0 -- -- 83
2019-04-09 22:00:00 7 16 Noroeste 33 Noroeste 0 -- -- 82
2019-04-09 21:00:00 8.3 14 Noroeste 25 Oeste 0 -- -- 73
2019-04-09 20:00:00 9.9 13 Noroeste 22 Oeste 0 -- -- 63
2019-04-09 19:00:00 11.2 14 Noroeste 32 Oeste 0 -- -- 57
2019-04-09 18:00:00 12.5 21 Oeste 27 Oeste 0 -- -- 52
2019-04-09 17:00:00 12.8 19 Noroeste 27 Noroeste 0 -- -- 52
2019-04-09 16:00:00 12.8 22 Noroeste 28 Noroeste 0 -- -- 48
2019-04-09 15:00:00 12.6 18 Noroeste 27 Noroeste 0 -- -- 55
2019-04-09 14:00:00 12.4 9 Norte 27 Noroeste 0 -- -- 54
2019-04-09 13:00:00 11.8 16 Noroeste 33 Noroeste 0 -- -- 52
2019-04-09 12:00:00 10.9 17 Noroeste 30 Noroeste 0 -- -- 56
2019-04-09 11:00:00 9.9 7 Nordeste 14 Nordeste 0 -- -- 66
2019-04-09 10:00:00 8.3 4 Este 8 Este 0 -- -- 78
2019-04-09 09:00:00 5 3 Nordeste 4 Nordeste 0 -- -- 96
2019-04-09 08:00:00 2.8 0 Calma 4 Oeste 0 -- -- 95
2019-04-09 07:00:00 3.1 0 Calma 6 Sudoeste 0 -- -- 94
2019-04-09 06:00:00 3.7 0 Calma 3 Oeste 0 -- -- 93
2019-04-09 05:00:00 4 2 Sudeste 3 Nordeste 0 -- -- 93
2019-04-09 04:00:00 4.5 0 Calma 4 Oeste 0 -- -- 89
2019-04-09 03:00:00 5.4 3 Oeste 5 Sudoeste 0 -- -- 88
2019-04-09 02:00:00 5.2 3 Este 9 Noroeste 0 -- -- 89
2019-04-09 01:00:00 6.7 6 Sudoeste 8 Sudoeste 0 -- -- 85
2019-04-09 00:00:00 6.9 6 Sudoeste 8 Sudoeste 0 -- -- 84
2019-04-08 23:00:00 7.1 5 Sudeste 9 Sudeste 0 -- -- 82
2019-04-08 22:00:00 8.1 3 Sur 8 Sudoeste 0 -- -- 80
2019-04-08 21:00:00 9.2 5 Noroeste 19 Norte 0 -- -- 76
2019-04-08 20:00:00 11.7 12 Norte 24 Noroeste 0 -- -- 68
2019-04-08 19:00:00 11.8 14 Noroeste 23 Noroeste 0 -- -- 62
2019-04-08 18:00:00 12.9 10 Noroeste 19 Norte 0 -- -- 60
2019-04-08 17:00:00 12.2 13 Norte 24 Norte 0 -- -- 66
2019-04-08 16:00:00 11.9 9 Norte 15 Noroeste 0 -- -- 71
2019-04-08 15:00:00 11.5 4 Noroeste 10 Oeste 0 -- -- 71
2019-04-08 14:00:00 11 5 Norte 9 Sudeste 0 -- -- 75
2019-04-08 13:00:00 10.3 5 Este 12 Este 0.2 -- -- 75
2019-04-08 12:00:00 8.3 4 Nordeste 8 Este 0 -- -- 82
2019-04-08 11:00:00 6.9 0 Calma 13 Sudeste 0.8 -- -- 84
2019-04-08 10:00:00 6.8 3 Este 12 Este 0.2 -- -- 81
2019-04-08 09:00:00 6.4 9 Sudeste 19 Sur 0 -- -- 79
2019-04-08 08:00:00 5.9 8 Sur 21 Sur 0 -- -- 75
2019-04-08 07:00:00 5.6 12 Sudeste 18 Sudeste 0 -- -- 78
2019-04-08 06:00:00 4.8 3 Norte 10 Sudeste 0.2 -- -- 84
2019-04-08 05:00:00 5.3 5 Sudeste 14 Sur 0 -- -- 82
2019-04-08 04:00:00 6.6 11 Sur 20 Sur 0 -- -- 70
2019-04-08 03:00:00 6.3 15 Sur 21 Sur 0 -- -- 69
2019-04-08 02:00:00 5.8 9 Sur 18 Sur 0 -- -- 73
2019-04-08 01:00:00 6.3 10 Sudeste 15 Sudeste 0 -- -- 72
2019-04-08 00:00:00 5.7 4 Este 12 Sudoeste 0 -- -- 72
2019-04-07 23:00:00 5.9 7 Sur 10 Sudoeste 0 -- -- 71
2019-04-07 22:00:00 6 2 Sudoeste 7 Oeste 0 -- -- 72
2019-04-07 21:00:00 7 4 Oeste 12 Norte 0 -- -- 71
2019-04-07 20:00:00 10 8 Noroeste 22 Noroeste 0 -- -- 61
2019-04-07 19:00:00 10.7 14 Noroeste 32 Noroeste 0 -- -- 60
2019-04-07 18:00:00 10.4 23 Noroeste 31 Noroeste 0 -- -- 64
2019-04-07 17:00:00 11 17 Noroeste 34 Noroeste 0 -- -- 63
2019-04-07 16:00:00 10.2 19 Noroeste 30 Noroeste 0 -- -- 64
2019-04-07 15:00:00 10.7 19 Noroeste 37 Noroeste 0 -- -- 58
2019-04-07 14:00:00 9.7 25 Noroeste 38 Noroeste 0 -- -- 64
2019-04-07 13:00:00 8.6 27 Noroeste 37 Noroeste 0 -- -- 69
2019-04-07 12:00:00 7.4 19 Noroeste 33 Norte 0 -- -- 68
2019-04-07 11:00:00 6 19 Noroeste 33 Norte 0 -- -- 79
2019-04-07 10:00:00 5.6 11 Norte 21 Noroeste 0 -- -- 81
2019-04-07 09:00:00 4.6 9 Norte 17 Noroeste 0 -- -- 88
2019-04-07 08:00:00 3.4 3 Noroeste 8 Norte 0 -- -- 93
2019-04-07 07:00:00 3.4 3 Noroeste 9 Norte 0 -- -- 91
2019-04-07 06:00:00 3.6 6 Norte 19 Noroeste 0 -- -- 89
2019-04-07 05:00:00 4.2 13 Noroeste 19 Noroeste 0 -- -- 87
2019-04-07 04:00:00 4.6 4 Noroeste 14 Noroeste 0 -- -- 88
2019-04-07 03:00:00 4.7 5 Sudoeste 17 Sur 0.2 -- -- 85
2019-04-07 02:00:00 5 12 Sur 19 Sur 0 -- -- 85
2019-04-07 01:00:00 5.4 6 Sudoeste 18 Sudeste 0 -- -- 81
2019-04-07 00:00:00 5.4 11 Sudeste 23 Sudeste 0 -- -- 82
2019-04-06 23:00:00 5.2 10 Sudeste 24 Sur 0 -- -- 83
2019-04-06 22:00:00 5.7 8 Sur 23 Sudeste 0 -- -- 80
2019-04-06 21:00:00 6.7 12 Sur 18 Sur 0 -- -- 76
2019-04-06 20:00:00 7.6 4 Sur 21 Sur 0 -- -- 73
2019-04-06 19:00:00 9.1 10 Sur 25 Sudeste 0 -- -- 60
2019-04-06 18:00:00 8.7 20 Sudeste 29 Este 0 -- -- 71
2019-04-06 17:00:00 8.2 8 Este 23 Sudeste 0 -- -- 80
2019-04-06 16:00:00 7.8 9 Sur 29 Sudoeste 1 -- -- 73
2019-04-06 15:00:00 6.2 25 Sudoeste 42 Sudoeste 0.2 -- -- 74
2019-04-06 14:00:00 8.2 8 Sudeste 21 Este 0 -- -- 64
2019-04-06 13:00:00 7.5 13 Este 23 Este 0 -- -- 73
2019-04-06 12:00:00 6 5 Sudeste 11 Nordeste 0 -- -- 84
2019-04-06 11:00:00 4.7 2 Sudeste 8 Este 0 -- -- 89
2019-04-06 10:00:00 3.3 4 Este 7 Este 0 -- -- 96
2019-04-06 09:00:00 2.3 3 Sudeste 7 Este 0.2 -- -- 97
2019-04-06 08:00:00 1.7 3 Sudeste 5 Este 0.2 -- -- 96
2019-04-06 07:00:00 1.5 0 Calma 8 Este 0.4 -- -- 96
2019-04-06 06:00:00 1.3 6 Sudeste 9 Sudeste 1 -- -- 96
2019-04-06 05:00:00 1.6 3 Sudeste 6 Sudeste 1.2 -- -- 96
2019-04-06 04:00:00 1.3 4 Sudeste 8 Sudeste 1.2 -- -- 96
2019-04-06 03:00:00 0.6 5 Sudeste 10 Sudeste 1.4 -- -- 95
2019-04-06 02:00:00 1.4 2 Este 12 Norte 3 -- -- 93
2019-04-06 01:00:00 2.5 12 Oeste 24 Oeste 2.8 -- -- 92
2019-04-06 00:00:00 4.3 10 Noroeste 23 Oeste 0 -- -- 89
2019-04-05 23:00:00 4.2 13 Sur 24 Sur 0 -- -- 89
2019-04-05 22:00:00 4.2 13 Sur 29 Sur 0 -- -- 88
2019-04-05 21:00:00 4.1 18 Sur 31 Sur 0.4 -- -- 88
2019-04-05 20:00:00 4.4 8 Sudeste 22 Sudeste 1.8 -- -- 92
2019-04-05 19:00:00 5.3 9 Sudeste 15 Sudeste 2 -- -- 90
2019-04-05 18:00:00 6.5 8 Sur 22 Sudeste 0.8 -- -- 84
2019-04-05 17:00:00 7.8 10 Sudeste 31 Sudeste 0 -- -- 76
2019-04-05 16:00:00 7.7 18 Sudeste 39 Sudeste 0 -- -- 81
2019-04-05 15:00:00 7.3 13 Sur 35 Sudeste 0.4 -- -- 82
2019-04-05 14:00:00 7 23 Sudeste 35 Sudeste 0 -- -- 81
2019-04-05 13:00:00 6.9 23 Sudeste 37 Sudeste 0 -- -- 79
2019-04-05 12:00:00 7.2 20 Sudeste 32 Sudeste 0.2 -- -- 82
2019-04-05 11:00:00 4.8 20 Sudeste 33 Sudeste 0 -- -- 86
2019-04-05 10:00:00 3.8 21 Sudeste 33 Sudeste 0.4 -- -- 86
2019-04-05 09:00:00 3.9 15 Sudeste 33 Sudeste 0.2 -- -- 86
2019-04-05 08:00:00 4 20 Sudeste 29 Sudeste 0.4 -- -- 85
2019-04-05 07:00:00 5.8 17 Sudeste 34 Sudeste 0 -- -- 69
2019-04-05 06:00:00 6.5 16 Sudeste 36 Sudeste 0 -- -- 49
2019-04-05 05:00:00 7 16 Sur 30 Sur 0 -- -- 41
2019-04-05 04:00:00 6.8 11 Sudeste 29 Sudeste 0 -- -- 41
2019-04-05 03:00:00 6.8 15 Sudeste 25 Sudeste 0 -- -- 41
2019-04-05 02:00:00 6.5 16 Sudeste 24 Sudeste 0 -- -- 45
2019-04-05 01:00:00 6.7 12 Sur 26 Sur 0 -- -- 47
2019-04-05 00:00:00 7.4 18 Sur 32 Sur 0 -- -- 43
2019-04-04 23:00:00 7.1 21 Sur 29 Sur 0 -- -- 44
2019-04-04 22:00:00 7.4 12 Sur 23 Sur 0 -- -- 43
2019-04-04 21:00:00 7.6 13 Sur 22 Sur 0 -- -- 45
2019-04-04 20:00:00 8.8 8 Sur 17 Sudoeste 0 -- -- 42
2019-04-04 19:00:00 9.9 14 Sudoeste 25 Sudoeste 0 -- -- 35
2019-04-04 18:00:00 8.9 3 Noroeste 18 Este 0 -- -- 42
2019-04-04 17:00:00 9 6 Este 19 Nordeste 0 -- -- 42
2019-04-04 16:00:00 8.8 7 Nordeste 28 Noroeste 0 -- -- 45
2019-04-04 15:00:00 8.3 13 Norte 29 Noroeste 0 -- -- 46
2019-04-04 14:00:00 7.7 15 Noroeste 29 Noroeste 0 -- -- 47
2019-04-04 13:00:00 7.1 19 Noroeste 28 Noroeste 0 -- -- 50
2019-04-04 12:00:00 4.9 19 Noroeste 28 Noroeste 0 -- -- 55
2019-04-04 11:00:00 3.7 13 Noroeste 29 Noroeste 0 -- -- 64
2019-04-04 10:00:00 2.7 13 Norte 21 Noroeste 0 -- -- 75
2019-04-04 09:00:00 1.2 6 Nordeste 14 Norte 0 -- -- 79
2019-04-04 08:00:00 0.9 10 Noroeste 27 Norte 0 -- -- 76
2019-04-04 07:00:00 0.4 12 Noroeste 24 Noroeste 0 -- -- 78
2019-04-04 06:00:00 0.7 10 Noroeste 17 Noroeste 0 -- -- 78
2019-04-04 05:00:00 0.1 7 Noroeste 12 Norte 0 -- -- 84
2019-04-04 04:00:00 0.3 3 Nordeste 15 Oeste 0 -- -- 84
2019-04-04 03:00:00 0.5 10 Noroeste 30 Noroeste 0 -- -- 80
2019-04-04 02:00:00 1.1 27 Noroeste 39 Noroeste 0 -- -- 77
2019-04-04 01:00:00 1.3 24 Noroeste 34 Noroeste 0 -- -- 71
2019-04-04 00:00:00 1.8 25 Noroeste 36 Noroeste 0 -- -- 66
2019-04-03 23:00:00 2.2 16 Noroeste 37 Noroeste 0 -- -- 66
2019-04-03 22:00:00 2.4 19 Noroeste 31 Noroeste 0 -- -- 66
2019-04-03 21:00:00 3.3 19 Noroeste 30 Noroeste 0 -- -- 66
2019-04-03 20:00:00 4.8 10 Norte 39 Noroeste 0 -- -- 70
2019-04-03 19:00:00 5.5 27 Noroeste 38 Noroeste 0 -- -- 63
2019-04-03 18:00:00 6.7 23 Noroeste 57 Noroeste 0.2 -- -- 60
2019-04-03 17:00:00 9.3 29 Noroeste 41 Noroeste 0 -- -- 48
2019-04-03 16:00:00 7.4 19 Nordeste 35 Norte 0 -- -- 67
2019-04-03 15:00:00 8.2 22 Noroeste 33 Noroeste 0 -- -- 61
2019-04-03 14:00:00 6.4 17 Noroeste 26 Noroeste 0 -- -- 72
2019-04-03 13:00:00 4.7 14 Norte 25 Norte 0.2 -- -- 83
2019-04-03 12:00:00 5.9 15 Noroeste 21 Noroeste 0 -- -- 81
2019-04-03 11:00:00 5.1 9 Noroeste 14 Noroeste 0 -- -- 85
2019-04-03 10:00:00 5 5 Noroeste 10 Noroeste 0 -- -- 89
2019-04-03 09:00:00 5 7 Noroeste 10 Oeste 0 -- -- 91
2019-04-03 08:00:00 5.1 5 Noroeste 12 Noroeste 0 -- -- 91
2019-04-03 07:00:00 5.4 4 Noroeste 10 Nordeste 0 -- -- 92
2019-04-03 06:00:00 5.6 6 Nordeste 11 Noroeste 0.4 -- -- 90
2019-04-03 05:00:00 6.3 9 Noroeste 13 Norte 0.4 -- -- 87
2019-04-03 04:00:00 7 3 Nordeste 9 Noroeste 0 -- -- 77
2019-04-03 03:00:00 6.8 4 Sudoeste 5 Sudoeste 0 -- -- 78
2019-04-03 02:00:00 7.3 2 Oeste 4 Oeste 0 -- -- 72
2019-04-03 01:00:00 7.9 0 Calma 5 Sudoeste 0 -- -- 71
2019-04-03 00:00:00 8.1 3 Sur 7 Sudeste 0 -- -- 67
2019-04-02 23:00:00 7.8 4 Este 18 Noroeste 0 -- -- 67
2019-04-02 22:00:00 8.3 12 Noroeste 26 Noroeste 0 -- -- 66
2019-04-02 21:00:00 9.9 16 Noroeste 27 Noroeste 0 -- -- 61
2019-04-02 20:00:00 12.5 14 Noroeste 26 Noroeste 0 -- -- 49
2019-04-02 19:00:00 13.7 19 Noroeste 31 Noroeste 0 -- -- 42
2019-04-02 18:00:00 16.4 17 Noroeste 28 Noroeste 0 -- -- 40
2019-04-02 17:00:00 16 19 Noroeste 31 Noroeste 0 -- -- 38
2019-04-02 16:00:00 15.8 18 Norte 29 Oeste 0 -- -- 41
2019-04-02 15:00:00 15.3 17 Norte 31 Noroeste 0 -- -- 48
2019-04-02 14:00:00 14.4 18 Noroeste 31 Noroeste 0 -- -- 52
2019-04-02 13:00:00 14.2 12 Norte 21 Noroeste 0 -- -- 58
2019-04-02 12:00:00 12.6 8 Norte 15 Norte 0 -- -- 69
2019-04-02 11:00:00 10.9 4 Norte 10 Sudeste 0 -- -- 84
2019-04-02 10:00:00 8.2 3 Sudeste 9 Noroeste 0 -- -- 97
2019-04-02 09:00:00 6.9 4 Noroeste 8 Norte 0 -- -- 96
2019-04-02 08:00:00 7.1 2 Sudoeste 6 Norte 0 -- -- 96
2019-04-02 07:00:00 6.5 4 Oeste 5 Nordeste 0 -- -- 95
2019-04-02 06:00:00 7 3 Sur 7 Sudeste 0 -- -- 94
2019-04-02 05:00:00 7.5 4 Noroeste 8 Noroeste 0 -- -- 94
2019-04-02 04:00:00 8.1 3 Sur 6 Norte 0 -- -- 94
2019-04-02 03:00:00 8.5 3 Oeste 5 Sudeste 0 -- -- 92
2019-04-02 02:00:00 9.1 3 Oeste 4 Oeste 0 -- -- 90
2019-04-02 01:00:00 9.3 3 Sudoeste 6 Oeste 0.2 -- -- 90
2019-04-02 00:00:00 9.7 6 Noroeste 9 Noroeste 0 -- -- 87
2019-04-01 23:00:00 10.6 9 Sudeste 14 Sur 0 -- -- 82
2019-04-01 22:00:00 10.6 6 Este 15 Sudeste 0 -- -- 80
2019-04-01 21:00:00 10.8 6 Sudeste 12 Sudeste 0 -- -- 80
2019-04-01 20:00:00 11.7 8 Sudeste 15 Sudeste 0 -- -- 73
2019-04-01 19:00:00 12.6 13 Sudeste 18 Sudeste 0 -- -- 69
2019-04-01 18:00:00 13.1 14 Sudeste 22 Este 0.2 -- -- 69
2019-04-01 17:00:00 13.3 10 Sudeste 18 Sur 0 -- -- 67
2019-04-01 16:00:00 13.4 11 Sur 21 Sudeste 0 -- -- 65
2019-04-01 15:00:00 13.6 14 Sudeste 21 Sudeste 0 -- -- 68
2019-04-01 14:00:00 11.7 10 Sur 18 Sur 0 -- -- 76
2019-04-01 13:00:00 10.2 11 Sur 17 Sur 0 -- -- 81
2019-04-01 12:00:00 9.4 9 Sur 14 Sur 0 -- -- 89
2019-04-01 11:00:00 7.7 3 Norte 5 Norte -- -- -- 91
2019-04-01 10:00:00 6.9 0 Calma 4 Nordeste 0.4 -- -- 92
2019-04-01 09:00:00 6.2 3 Este 4 Este 0.8 -- -- 93
2019-04-01 08:00:00 6 3 Sudeste 5 Este 0.8 -- -- 93
2019-04-01 07:00:00 6.1 4 Este 6 Este 0.6 -- -- 91
2019-04-01 06:00:00 6.6 5 Sudeste 8 Sudeste 0 -- -- 87
2019-04-01 05:00:00 6.8 5 Sudeste 7 Sudeste 0 -- -- 84
2019-04-01 04:00:00 7.1 2 Sudeste 4 Sudeste 0 -- -- 86
2019-04-01 03:00:00 8 2 Sudeste 7 Sudoeste 0 -- -- 79
2019-04-01 02:00:00 8.1 3 Sur 5 Sudoeste 0 -- -- 74
2019-04-01 01:00:00 8.3 2 Sur 5 Sudoeste 0 -- -- 72
2019-04-01 00:00:00 8.5 0 Calma 5 Noroeste 0 -- -- 71
2019-03-31 23:00:00 8.9 3 Oeste 9 Sudoeste 0 -- -- 69
2019-03-31 22:00:00 9.4 8 Sudoeste 25 Sudoeste 0 -- -- 66
2019-03-31 21:00:00 9.8 14 Sudoeste 24 Sur 0 -- -- 66
2019-03-31 20:00:00 10.9 11 Sur 23 Sur 0 -- -- 60
2019-03-31 19:00:00 12 16 Sudoeste 27 Sur 0 -- -- 59
2019-03-31 18:00:00 13.1 17 Sur 26 Sur 0 -- -- 55
2019-03-31 17:00:00 14.4 15 Sur 22 Sur 0 -- -- 51
2019-03-31 16:00:00 14.5 14 Sur 26 Sur 0 -- -- 50
2019-03-31 15:00:00 14.9 12 Sur 21 Sur 0 -- -- 43
2019-03-31 14:00:00 14.7 11 Sudoeste 23 Sudeste 0 -- -- 41
2019-03-31 13:00:00 13.5 7 Norte 13 Noroeste 0 -- -- 50
2019-03-31 12:00:00 11.6 6 Norte 10 Norte 0 -- -- 59
2019-03-31 11:00:00 8.2 4 Norte 8 Noroeste 0 -- -- 66
2019-03-31 10:00:00 4.6 3 Norte 5 Nordeste 0 -- -- 77
2019-03-31 09:00:00 3.1 3 Noroeste 5 Noroeste 0 -- -- 81
2019-03-31 08:00:00 2.7 0 Calma 4 Sudeste 0 -- -- 81
2019-03-31 07:00:00 2.9 3 Este 8 Noroeste 0 -- -- 79
2019-03-31 06:00:00 3.7 7 Noroeste 9 Nordeste 0 -- -- 77
2019-03-31 05:00:00 6.1 7 Este 24 Sur 0 -- -- 68
2019-03-31 03:00:00 7.3 5 Sudeste 22 Sur 0 -- -- 63
2019-03-31 01:00:00 7.1 9 Sudeste 17 Sur 0 -- -- 63
2019-03-31 00:00:00 8.7 14 Sur 22 Sur 0 -- -- 54
2019-03-30 23:00:00 9.8 8 Sudeste 18 Sur 0 -- -- 51
2019-03-30 22:00:00 11.3 10 Sur 23 Sur 0 -- -- 46
2019-03-30 21:00:00 11.2 14 Sudoeste 28 Sudoeste 0 -- -- 47
2019-03-30 20:00:00 11.6 20 Sur 27 Sudoeste 0 -- -- 43
2019-03-30 19:00:00 13.1 18 Sur 29 Sur 0 -- -- 40
2019-03-30 18:00:00 14.9 19 Sur 26 Sur 0 -- -- 36
2019-03-30 17:00:00 16 13 Sur 26 Sur 0 -- -- 35
2019-03-30 16:00:00 16.5 14 Sur 24 Sur 0 -- -- 35
2019-03-30 15:00:00 16.5 10 Sur 21 Sudeste 0 -- -- 33
2019-03-30 14:00:00 16 12 Sur 24 Sur 0 -- -- 35
2019-03-30 13:00:00 15 14 Sur 26 Sur 0 -- -- 33
2019-03-30 12:00:00 13.8 17 Sur 26 Sur 0 -- -- 39
2019-03-30 11:00:00 12.7 17 Sur 27 Sur 0 -- -- 37
2019-03-30 10:00:00 11.2 15 Sudeste 27 Sur 0 -- -- 48
2019-03-30 09:00:00 8 19 Sur 26 Sur 0 -- -- 59
2019-03-30 08:00:00 6.2 16 Sur 24 Sudoeste 0 -- -- 64
2019-03-30 07:00:00 5.3 17 Sur 24 Sur 0 -- -- 67
2019-03-30 06:00:00 5.1 17 Sur 22 Sur 0 -- -- 67
2019-03-30 05:00:00 5.5 14 Sur 19 Sur 0 -- -- 66
2019-03-30 04:00:00 5.7 14 Sur 23 Sur 0 -- -- 65
2019-03-30 03:00:00 5.9 6 Sudeste 14 Sudeste 0 -- -- 65
2019-03-30 02:00:00 6.7 6 Sudoeste 14 Sur 0 -- -- 61
2019-03-30 01:00:00 7 4 Sudeste 21 Sur 0 -- -- 59
2019-03-30 00:00:00 7.9 15 Sur 29 Sur 0 -- -- 57
2019-03-29 23:00:00 9.2 21 Sur 36 Sur 0 -- -- 54
2019-03-29 22:00:00 9.9 19 Sur 26 Sur 0 -- -- 52
2019-03-29 21:00:00 10.6 12 Sur 19 Sur 0 -- -- 47
2019-03-29 20:00:00 11.8 13 Sur 28 Sur 0 -- -- 43
2019-03-29 19:00:00 13.5 17 Sudoeste 32 Sudoeste 0 -- -- 38
2019-03-29 18:00:00 15.1 17 Sudoeste 31 Sur 0 -- -- 34
2019-03-29 17:00:00 15.8 19 Sudoeste 35 Sur 0 -- -- 34
2019-03-29 16:00:00 16.1 18 Sur 34 Sur 0 -- -- 33
2019-03-29 15:00:00 15.6 20 Sur 36 Sudoeste 0 -- -- 33
2019-03-29 14:00:00 15.5 22 Sur 39 Sur 0 -- -- 34
2019-03-29 13:00:00 15.1 21 Sur 40 Sudoeste 0 -- -- 35
2019-03-29 12:00:00 14.2 25 Sur 37 Sur 0 -- -- 34
2019-03-29 11:00:00 14.3 17 Sudeste 31 Sudeste 0 -- -- 40
2019-03-29 10:00:00 11.3 17 Sur 30 Sur 0 -- -- 44
2019-03-29 09:00:00 9.4 17 Sur 25 Sur 0 -- -- 49
2019-03-29 08:00:00 7 13 Sur 23 Sur 0 -- -- 54
2019-03-29 07:00:00 5.5 10 Sudeste 23 Sudeste 0 -- -- 62
2019-03-29 06:00:00 6.1 13 Sur 18 Sur 0 -- -- 59
2019-03-29 05:00:00 5.8 7 Sudeste 21 Sudeste 0 -- -- 59
2019-03-29 04:00:00 6.4 11 Sudeste 27 Sur 0 -- -- 61
2019-03-29 03:00:00 8.2 19 Sur 28 Sur 0 -- -- 59
2019-03-29 02:00:00 7.8 8 Sudeste 16 Sudeste 0 -- -- 59
2019-03-29 01:00:00 7.8 6 Sudeste 13 Sudeste 0 -- -- 61
2019-03-29 00:00:00 6.9 2 Sur 11 Sudoeste 0 -- -- 68
2019-03-28 23:00:00 9 7 Sudoeste 10 Sudoeste 0 -- -- 60
2019-03-28 22:00:00 9.9 4 Sur 9 Sudoeste 0 -- -- 57
2019-03-28 21:00:00 10.8 5 Sudoeste 9 Sudoeste 0 -- -- 54
2019-03-28 20:00:00 12.4 2 Sudeste 15 Oeste 0 -- -- 49
2019-03-28 19:00:00 14.7 13 Oeste 20 Noroeste 0 -- -- 43
2019-03-28 18:00:00 17.5 12 Oeste 22 Oeste 0 -- -- 36
2019-03-28 17:00:00 18.2 13 Noroeste 21 Noroeste 0 -- -- 33
2019-03-28 16:00:00 18.4 9 Noroeste 21 Oeste 0 -- -- 30
2019-03-28 15:00:00 17.8 9 Noroeste 18 Oeste 0 -- -- 32
2019-03-28 14:00:00 16.5 5 Sudoeste 17 Sudoeste 0 -- -- 31
2019-03-28 13:00:00 15.3 5 Este 14 Norte 0 -- -- 34
2019-03-28 12:00:00 13.5 4 Norte 10 Noroeste 0 -- -- 37
2019-03-28 11:00:00 11.3 4 Norte 10 Noroeste 0 -- -- 43
2019-03-28 10:00:00 8.1 3 Norte 7 Nordeste 0 -- -- 52
2019-03-28 09:00:00 4.7 0 Calma 6 Nordeste 0 -- -- 64
2019-03-28 08:00:00 2.3 2 Sudoeste 5 Sudoeste 0 -- -- 71
2019-03-28 07:00:00 1 2 Noroeste 6 Noroeste 0 -- -- 75
2019-03-28 06:00:00 1.2 5 Noroeste 6 Noroeste 0 -- -- 75
2019-03-28 05:00:00 2.4 0 Calma 3 Noroeste 0 -- -- 68
2019-03-28 04:00:00 3.1 3 Sudeste 4 Sudeste 0 -- -- 65
2019-03-28 03:00:00 4 3 Oeste 5 Oeste 0 -- -- 61
2019-03-28 02:00:00 4.7 4 Este 5 Este 0 -- -- 58
2019-03-28 01:00:00 5.2 3 Oeste 8 Sur 0 -- -- 56
2019-03-28 00:00:00 6.6 6 Sudoeste 9 Sudoeste 0 -- -- 52
2019-03-27 23:00:00 6.9 4 Sur 6 Sudoeste 0 -- -- 50
2019-03-27 22:00:00 7.2 3 Oeste 8 Oeste 0 -- -- 48
2019-03-27 21:00:00 8.7 3 Oeste 11 Norte 0 -- -- 43
2019-03-27 20:00:00 10.5 3 Norte 20 Noroeste 0 -- -- 37
2019-03-27 19:00:00 12.2 15 Noroeste 31 Noroeste 0 -- -- 37
2019-03-27 18:00:00 15.7 22 Noroeste 32 Noroeste 0 -- -- 29
2019-03-27 17:00:00 17.4 24 Noroeste 35 Noroeste 0 -- -- 26
2019-03-27 16:00:00 18.7 20 Noroeste 32 Noroeste 0 -- -- 21
2019-03-27 15:00:00 19.1 11 Noroeste 23 Oeste 0 -- -- 22
2019-03-27 14:00:00 17.5 8 Norte 17 Norte 0 -- -- 21
2019-03-27 13:00:00 15.8 9 Norte 18 Norte 0 -- -- 24
2019-03-27 12:00:00 14.1 8 Norte 19 Norte 0 -- -- 26
2019-03-27 11:00:00 11.4 4 Norte 9 Norte 0 -- -- 32
2019-03-27 10:00:00 8.1 3 Norte 8 Nordeste 0 -- -- 45
2019-03-27 09:00:00 3.9 4 Norte 6 Norte 0 -- -- 53
2019-03-27 08:00:00 1.3 2 Noroeste 5 Norte 0 -- -- 57
2019-03-27 07:00:00 0.3 3 Sudeste 7 Sudeste 0 -- -- 61
2019-03-27 06:00:00 0.6 4 Noroeste 8 Sudoeste 0 -- -- 59
2019-03-27 05:00:00 1.2 3 Este 9 Sudoeste 0 -- -- 57
2019-03-27 04:00:00 2.8 4 Sudoeste 6 Sudoeste 0 -- -- 50
2019-03-27 03:00:00 3.7 2 Este 12 Oeste 0 -- -- 46
2019-03-27 02:00:00 3.6 10 Oeste 16 Oeste 0 -- -- 48
2019-03-27 01:00:00 4.1 10 Oeste 14 Oeste 0 -- -- 46
2019-03-27 00:00:00 6.3 2 Sur 5 Noroeste 0 -- -- 37
2019-03-26 23:00:00 6.6 8 Oeste 15 Noroeste 0 -- -- 37
2019-03-26 22:00:00 7.8 0 Calma 9 Oeste 0 -- -- 33
2019-03-26 21:00:00 8.5 3 Oeste 25 Oeste 0 -- -- 33
2019-03-26 20:00:00 9.6 16 Oeste 31 Norte 0 -- -- 32
2019-03-26 19:00:00 12.3 21 Noroeste 37 Noroeste 0 -- -- 29
2019-03-26 18:00:00 14.6 29 Noroeste 41 Noroeste 0 -- -- 27
2019-03-26 17:00:00 16.8 24 Noroeste 36 Noroeste 0 -- -- 23
2019-03-26 16:00:00 17.5 27 Noroeste 38 Noroeste 0 -- -- 20
2019-03-26 15:00:00 18.2 17 Noroeste 30 Noroeste 0 -- -- 18
2019-03-26 14:00:00 17.7 14 Noroeste 25 Noroeste 0 -- -- 18
2019-03-26 13:00:00 16.4 13 Noroeste 22 Noroeste 0 -- -- 19
2019-03-26 12:00:00 14.5 5 Noroeste 15 Noroeste 0 -- -- 23
2019-03-26 11:00:00 11.5 4 Noroeste 9 Norte 0 -- -- 33
2019-03-26 10:00:00 8.5 4 Noroeste 8 Noroeste 0 -- -- 43
2019-03-26 09:00:00 6.1 2 Nordeste 6 Noroeste 0 -- -- 57
2019-03-26 08:00:00 2.9 3 Nordeste 10 Sudoeste 0 -- -- 71
2019-03-26 07:00:00 1.6 6 Sudoeste 10 Sudoeste 0 -- -- 66
2019-03-26 06:00:00 3 5 Sudoeste 7 Sudoeste 0 -- -- 61
2019-03-26 05:00:00 3 6 Oeste 9 Oeste 0 -- -- 64
2019-03-26 04:00:00 4.7 4 Sudeste 6 Sudeste 0 -- -- 63
2019-03-26 03:00:00 4.2 0 Calma 8 Noroeste 0 -- -- 69
2019-03-26 02:00:00 4.8 4 Oeste 13 Noroeste 0 -- -- 68
2019-03-26 01:00:00 5.2 6 Oeste 13 Noroeste 0 -- -- 68
2019-03-26 00:00:00 5.3 8 Noroeste 22 Noroeste 0 -- -- 69
2019-03-25 23:00:00 6.3 17 Noroeste 27 Noroeste 0 -- -- 65
2019-03-25 22:00:00 7.1 18 Noroeste 32 Noroeste 0 -- -- 61
2019-03-25 21:00:00 7.6 19 Noroeste 31 Noroeste 0 -- -- 58
2019-03-25 20:00:00 8.5 22 Noroeste 35 Noroeste 0 -- -- 52
2019-03-25 19:00:00 10.4 23 Noroeste 45 Noroeste 0 -- -- 46
2019-03-25 18:00:00 12.4 32 Noroeste 44 Noroeste 0 -- -- 42
2019-03-25 17:00:00 13.8 36 Noroeste 46 Noroeste 0 -- -- 39
2019-03-25 16:00:00 16.5 27 Noroeste 43 Noroeste 0 -- -- 29
2019-03-25 15:00:00 16.2 28 Noroeste 37 Noroeste 0 -- -- 31
2019-03-25 14:00:00 16 22 Noroeste 34 Noroeste 0 -- -- 34
2019-03-25 13:00:00 15 22 Noroeste 32 Noroeste 0 -- -- 37
2019-03-25 12:00:00 14.3 19 Noroeste 30 Norte 0 -- -- 42
2019-03-25 11:00:00 13.1 18 Noroeste 27 Noroeste 0 -- -- 50
2019-03-25 10:00:00 10.9 13 Noroeste 22 Noroeste 0 -- -- 57
2019-03-25 09:00:00 9.4 2 Nordeste 7 Este 0 -- -- 65
2019-03-25 08:00:00 6.4 0 Calma 6 Noroeste 0 -- -- 75
2019-03-25 07:00:00 4.6 4 Noroeste 6 Noroeste 0 -- -- 74
2019-03-25 06:00:00 5.6 3 Sudoeste 4 Sudoeste 0 -- -- 71
2019-03-25 05:00:00 5.8 3 Sudoeste 4 Sudoeste 0 -- -- 71
2019-03-25 04:00:00 6.4 0 Calma 5 Norte 0 -- -- 69
2019-03-25 03:00:00 7.5 5 Sudoeste 9 Sudoeste 0 -- -- 65
2019-03-25 02:00:00 7.9 5 Oeste 7 Sudoeste 0 -- -- 65
2019-03-25 01:00:00 9.1 3 Sudoeste 6 Oeste 0 -- -- 60
2019-03-25 00:00:00 9.7 5 Oeste 8 Noroeste 0 -- -- 58